OEYN Airport Information

Runway Information
Runway 10 Length 10532 ft width 148 ft
Elevation 18 ft Threshold 0 ft Heading 103
Runway 28 Length 10532 ft Width 148 ft
Elevation 26 ft Threshold 0 ft Heading 283
Airport Frequencies
Type AFIS Name INFO Frequency 118.1 MHZ
Type CTAF Name CTAF Frequency 122.8 MHZ
Type MISC Name FIRE RESCU Frequency 133.5 MHZ
Airport Navaids
Airport Weather Information & NOTAM
ADDS - METARS form results

(2104 UTC 12 December 2018)
Data provider http://aviationweather.gov/metar/data/
 
Forecast for: OEYN (YENBO , SA)
Text: TAF OEYN 121100Z 1212/1318 30014KT 9999 FEW040
Forecast period: 1200 to 2000 UTC 12 December 2018
Forecast type: FROM: standard forecast or significant change
Winds: from the WNW (300 degrees) at 16 MPH (14 knots; 7.2 m/s)
Visibility: 6 or more miles 10+ km)
Ceiling: at least 12,000 feet AGL
Clouds: few clouds at 4000 feet AGL
Weather: no significant weather forecast for this period
Text: BECMG 1220/1222 VRB03KT
Forecast period: 2000 UTC 12 December 2018 to 1800 UTC 13 December 2018
Forecast type: BECOMING: Conditions expected to become as follows by 2200 UTC 12 December 2018
Winds: variable direction winds at 3 MPH (3 knots; 1.5 m/s)
Visibility: 6 or more miles 10+ km)
Ceiling: at least 12,000 feet AGL
Clouds: few clouds at 4000 feet AGL
Weather: no significant weather forecast for this period